createdAt,value
2023-03-10T00:00:41.216Z,12.13
2023-03-10T00:03:09.971Z,12.18
2023-03-10T00:05:38.388Z,12.12
2023-03-10T00:08:06.417Z,11.97
2023-03-10T00:10:34.197Z,12.03
2023-03-10T00:13:03.810Z,11.88
2023-03-10T00:15:31.979Z,11.99
2023-03-10T00:17:59.594Z,11.99
2023-03-10T00:20:27.519Z,12.06
2023-03-10T00:22:55.075Z,11.99
2023-03-10T00:25:23.380Z,11.82
2023-03-10T00:27:52.737Z,11.93
2023-03-10T00:30:20.516Z,12.02
2023-03-10T00:32:50.411Z,11.91
2023-03-10T00:35:18.165Z,11.78
2023-03-10T00:37:47.425Z,12.03
2023-03-10T00:40:16.378Z,12.03
2023-03-10T00:42:45.010Z,12.03
2023-03-10T00:45:12.688Z,12.01
2023-03-10T00:47:43.041Z,12.09
2023-03-10T00:50:11.400Z,12.23
2023-03-10T00:52:38.929Z,12.02
2023-03-10T00:55:07.078Z,11.93
2023-03-10T00:57:54.764Z,12.06
2023-03-10T01:00:23.678Z,12.04
2023-03-10T01:02:53.062Z,12.00
2023-03-10T01:05:21.488Z,12.08
2023-03-10T01:07:49.563Z,12.12
2023-03-10T01:10:18.354Z,11.98
2023-03-10T01:12:50.398Z,11.90
2023-03-10T01:15:18.045Z,11.88
2023-03-10T01:17:45.640Z,11.95
2023-03-10T01:20:15.330Z,12.00
2023-03-10T01:22:43.516Z,11.94
2023-03-10T01:25:20.267Z,11.91
2023-03-10T01:27:48.710Z,11.75
2023-03-10T01:30:16.376Z,11.80
2023-03-10T01:32:45.194Z,11.79
2023-03-10T01:35:12.938Z,11.64
2023-03-10T01:37:42.394Z,11.44
2023-03-10T01:40:16.463Z,11.53
2023-03-10T01:42:45.013Z,11.53
2023-03-10T01:45:15.777Z,11.61
2023-03-10T01:47:43.906Z,11.68
2023-03-10T01:50:16.546Z,11.40
2023-03-10T01:52:45.384Z,11.45
2023-03-10T01:55:19.051Z,11.49
2023-03-10T01:57:52.763Z,11.34
2023-03-10T02:00:21.056Z,11.30
2023-03-10T02:02:53.357Z,11.38
2023-03-10T02:05:21.580Z,11.31
2023-03-10T02:07:50.498Z,11.28
2023-03-10T02:10:18.686Z,11.33
2023-03-10T02:12:49.649Z,11.20
2023-03-10T02:15:17.565Z,11.20
2023-03-10T02:17:46.194Z,11.19
2023-03-10T02:20:21.737Z,11.47
2023-03-10T02:22:49.975Z,11.40
2023-03-10T02:25:51.773Z,11.39
2023-03-10T02:28:23.255Z,11.12
2023-03-10T02:30:51.965Z,11.14
2023-03-10T02:33:24.044Z,11.15
2023-03-10T02:35:51.853Z,11.10
2023-03-10T02:38:24.039Z,11.20
2023-03-10T02:40:52.455Z,11.14
2023-03-10T02:43:28.226Z,10.99
2023-03-10T02:46:03.716Z,10.95
2023-03-10T02:48:34.508Z,10.73
2023-03-10T02:51:06.592Z,11.06
2023-03-10T02:53:34.275Z,10.97
2023-03-10T02:56:01.963Z,10.94
2023-03-10T02:58:33.437Z,10.95
2023-03-10T03:01:05.474Z,10.93
2023-03-10T03:03:37.795Z,10.81
2023-03-10T03:06:05.749Z,10.84
2023-03-10T03:08:35.566Z,10.79
2023-03-10T03:11:05.982Z,10.67
2023-03-10T03:13:33.982Z,10.62
2023-03-10T03:16:02.673Z,10.55
2023-03-10T03:18:31.437Z,10.60
2023-03-10T03:21:04.410Z,10.42
2023-03-10T03:23:36.314Z,10.46
2023-03-10T03:26:05.025Z,10.45
2023-03-10T03:28:33.414Z,10.43
2023-03-10T03:31:02.188Z,10.50
2023-03-10T03:33:38.205Z,10.43
2023-03-10T03:36:06.242Z,10.47
2023-03-10T03:38:35.001Z,10.51
2023-03-10T03:41:03.180Z,10.54
2023-03-10T03:43:31.462Z,10.58
2023-03-10T03:46:05.546Z,10.57
2023-03-10T03:48:35.017Z,10.64
2023-03-10T03:51:05.379Z,10.62
2023-03-10T03:53:38.570Z,10.79
2023-03-10T03:56:06.798Z,10.88
2023-03-10T03:58:38.573Z,10.81
2023-03-10T04:01:07.115Z,10.84
2023-03-10T04:03:41.343Z,10.83
2023-03-10T04:06:12.438Z,10.87
2023-03-10T04:08:42.238Z,10.88
2023-03-10T04:11:10.080Z,10.73
2023-03-10T04:13:46.365Z,10.84
2023-03-10T04:16:14.834Z,10.77
2023-03-10T04:18:45.055Z,10.76
2023-03-10T04:21:15.184Z,10.78
2023-03-10T04:23:44.026Z,10.72
2023-03-10T04:26:15.452Z,10.89
2023-03-10T04:28:43.102Z,10.87
2023-03-10T04:31:16.939Z,10.92
2023-03-10T04:33:50.009Z,10.89
2023-03-10T04:36:18.713Z,11.14
2023-03-10T04:38:52.674Z,11.30
2023-03-10T04:41:23.142Z,11.29
2023-03-10T04:43:55.980Z,11.31
2023-03-10T04:46:24.022Z,11.24
2023-03-10T04:48:53.198Z,11.24
2023-03-10T04:51:20.784Z,11.33
2023-03-10T04:53:51.508Z,11.42
2023-03-10T04:56:21.428Z,11.57
2023-03-10T04:58:49.398Z,11.49
2023-03-10T05:01:17.673Z,11.65
2023-03-10T05:04:03.529Z,11.70
2023-03-10T05:06:31.766Z,11.70
2023-03-10T05:09:19.706Z,11.87
2023-03-10T05:11:48.136Z,11.59
2023-03-10T05:14:19.485Z,11.76
2023-03-10T05:16:48.765Z,11.81
2023-03-10T05:19:17.389Z,11.71
2023-03-10T05:21:49.381Z,11.23
2023-03-10T05:24:17.327Z,11.69
2023-03-10T05:26:45.152Z,12.01
2023-03-10T05:29:13.585Z,11.65
2023-03-10T05:31:49.662Z,11.88
2023-03-10T05:34:25.541Z,11.71
2023-03-10T05:36:56.581Z,11.60
2023-03-10T05:39:24.336Z,11.61
2023-03-10T05:41:55.154Z,11.68
2023-03-10T05:44:25.910Z,11.77
2023-03-10T05:46:54.149Z,11.42
2023-03-10T05:49:22.065Z,11.42
2023-03-10T05:51:50.050Z,11.62
2023-03-10T05:54:19.061Z,11.54
2023-03-10T05:56:47.258Z,11.39
2023-03-10T05:59:14.939Z,11.77
2023-03-10T06:01:43.459Z,11.92
2023-03-10T06:04:11.364Z,11.99
2023-03-10T06:06:39.954Z,11.88
2023-03-10T06:09:08.488Z,12.00
2023-03-10T06:11:41.692Z,12.07
2023-03-10T06:14:10.332Z,11.62
2023-03-10T06:16:40.286Z,11.69
2023-03-10T06:19:11.233Z,11.72
2023-03-10T06:21:38.821Z,11.92
2023-03-10T06:24:06.706Z,11.98
2023-03-10T06:26:34.950Z,12.10
2023-03-10T06:29:02.601Z,12.30
2023-03-10T06:31:34.303Z,12.10
2023-03-10T06:34:04.560Z,12.44
2023-03-10T06:36:33.050Z,12.35
2023-03-10T06:39:00.691Z,12.60
2023-03-10T06:41:28.418Z,12.48
2023-03-10T06:43:56.159Z,12.23
2023-03-10T06:46:25.727Z,12.62
2023-03-10T06:48:54.181Z,12.48
2023-03-10T06:51:22.449Z,12.49
2023-03-10T06:53:51.940Z,12.80
2023-03-10T06:56:20.910Z,13.09
2023-03-10T06:58:49.853Z,12.92
2023-03-10T07:01:25.740Z,13.08
2023-03-10T07:03:53.972Z,12.89
2023-03-10T07:06:23.857Z,13.35
2023-03-10T07:09:11.335Z,13.55
2023-03-10T07:11:39.889Z,13.51
2023-03-10T07:14:07.993Z,13.62
2023-03-10T07:16:36.221Z,13.55
2023-03-10T07:19:03.931Z,13.63
2023-03-10T07:21:36.402Z,13.50
2023-03-10T07:24:05.332Z,13.98
2023-03-10T07:26:33.155Z,13.95
2023-03-10T07:29:02.749Z,14.06
2023-03-10T07:31:30.970Z,13.81
2023-03-10T07:33:59.673Z,13.84
2023-03-10T07:36:27.758Z,14.01
2023-03-10T07:38:55.735Z,13.99
2023-03-10T07:41:23.566Z,14.13
2023-03-10T07:43:52.840Z,14.09
2023-03-10T07:46:21.063Z,14.34
2023-03-10T07:48:48.732Z,14.24
2023-03-10T07:51:16.323Z,14.06
2023-03-10T07:53:43.946Z,14.32
2023-03-10T07:56:13.039Z,14.35
2023-03-10T07:58:42.063Z,14.97
2023-03-10T08:01:21.237Z,14.67
2023-03-10T08:03:49.020Z,14.61
2023-03-10T08:06:24.193Z,14.13
2023-03-10T08:08:53.315Z,14.62
2023-03-10T08:11:21.534Z,15.06
2023-03-10T08:13:49.302Z,14.67
2023-03-10T08:16:18.167Z,15.20
2023-03-10T08:18:45.752Z,14.77
2023-03-10T08:21:13.269Z,14.84
2023-03-10T08:23:45.039Z,14.51
2023-03-10T08:26:14.972Z,14.65
2023-03-10T08:28:42.763Z,14.39
2023-03-10T08:31:14.271Z,14.34
2023-03-10T08:33:43.626Z,14.55
2023-03-10T08:36:20.088Z,14.73
2023-03-10T08:38:49.482Z,14.49
2023-03-10T08:41:16.984Z,14.55
2023-03-10T08:43:48.505Z,14.81
2023-03-10T08:46:18.429Z,14.79
2023-03-10T08:48:46.131Z,14.85
2023-03-10T08:51:15.965Z,15.11
2023-03-10T08:53:44.881Z,14.75
2023-03-10T08:56:12.758Z,14.36
2023-03-10T08:58:41.020Z,14.68
2023-03-10T09:01:10.944Z,14.40
2023-03-10T09:03:39.857Z,14.65
2023-03-10T09:06:08.594Z,14.34
2023-03-10T09:08:36.629Z,14.52
2023-03-10T09:11:04.352Z,14.68
2023-03-10T09:13:31.948Z,14.78
2023-03-10T09:16:00.014Z,13.91
2023-03-10T09:18:29.534Z,14.14
2023-03-10T09:20:57.393Z,14.33
2023-03-10T09:23:25.622Z,14.19
2023-03-10T09:25:53.352Z,14.13
2023-03-10T09:28:21.222Z,14.05
2023-03-10T09:30:48.956Z,14.07
2023-03-10T09:33:19.106Z,14.69
2023-03-10T09:35:57.496Z,14.31
2023-03-10T09:38:33.054Z,14.54
2023-03-10T09:41:19.182Z,14.35
2023-03-10T09:44:07.846Z,14.17
2023-03-10T09:46:46.448Z,14.20
2023-03-10T09:49:30.223Z,14.86
2023-03-10T09:51:57.856Z,15.04
2023-03-10T09:54:44.441Z,15.26
2023-03-10T09:57:17.025Z,14.87
2023-03-10T09:59:50.830Z,15.18
2023-03-10T10:02:43.147Z,15.49
2023-03-10T10:05:20.889Z,15.16
2023-03-10T10:07:55.458Z,15.74
2023-03-10T10:10:36.687Z,15.83
2023-03-10T10:13:13.691Z,15.52
2023-03-10T10:15:50.080Z,15.53
2023-03-10T10:18:24.979Z,15.25
2023-03-10T10:20:59.328Z,15.30
2023-03-10T10:23:37.732Z,15.88
2023-03-10T10:26:24.762Z,15.85
2023-03-10T10:28:59.458Z,15.25
2023-03-10T10:31:29.142Z,14.74
2023-03-10T10:34:22.072Z,14.79
2023-03-10T10:36:52.216Z,15.03
2023-03-10T10:39:58.831Z,14.37
2023-03-10T10:42:28.019Z,14.31
2023-03-10T10:45:05.080Z,13.93
2023-03-10T10:47:33.712Z,13.85
2023-03-10T10:50:18.427Z,14.13
2023-03-10T10:52:51.766Z,14.51
2023-03-10T10:55:27.476Z,14.71
2023-03-10T10:58:01.464Z,14.36
2023-03-10T11:00:33.521Z,14.50
2023-03-10T11:03:41.184Z,15.08
2023-03-10T11:06:18.513Z,15.07
2023-03-10T11:08:53.414Z,15.17
2023-03-10T11:11:53.637Z,15.07
2023-03-10T11:14:45.267Z,15.16
2023-03-10T11:17:31.717Z,14.80
2023-03-10T11:19:59.388Z,15.10
2023-03-10T11:22:40.076Z,15.39
2023-03-10T11:25:15.430Z,15.33
2023-03-10T11:27:52.710Z,15.24
2023-03-10T11:30:33.434Z,15.47
2023-03-10T11:33:23.840Z,15.42
2023-03-10T11:35:59.808Z,14.74
2023-03-10T11:38:42.404Z,14.96
2023-03-10T11:41:22.149Z,14.62
2023-03-10T11:44:13.728Z,14.81
2023-03-10T11:46:49.030Z,14.87
2023-03-10T11:49:16.979Z,15.24
2023-03-10T11:52:05.543Z,14.74
2023-03-10T11:54:35.281Z,15.01
2023-03-10T11:57:22.430Z,15.25
2023-03-10T11:59:58.083Z,14.99
2023-03-10T12:02:28.728Z,14.40
2023-03-10T12:05:06.970Z,14.59
2023-03-10T12:07:44.498Z,14.55
2023-03-10T12:10:12.200Z,14.83
2023-03-10T12:12:47.776Z,15.46
2023-03-10T12:15:30.573Z,15.37
2023-03-10T12:18:55.602Z,15.35
2023-03-10T12:21:36.194Z,14.85
2023-03-10T12:24:04.338Z,15.61
2023-03-10T12:26:37.935Z,16.10
2023-03-10T12:29:20.668Z,16.02
2023-03-10T12:31:54.024Z,16.08
2023-03-10T12:34:23.052Z,15.76
2023-03-10T12:36:54.803Z,15.33
2023-03-10T12:39:28.365Z,14.70
2023-03-10T12:41:56.298Z,14.80
2023-03-10T12:44:43.284Z,14.63
2023-03-10T12:47:51.499Z,14.04
2023-03-10T12:50:43.680Z,13.92
2023-03-10T12:53:11.127Z,13.77
2023-03-10T12:55:43.693Z,13.89
2023-03-10T12:58:19.423Z,13.79
2023-03-10T13:00:50.790Z,13.94
2023-03-10T13:03:38.590Z,14.08
2023-03-10T13:06:15.025Z,14.11
2023-03-10T13:08:46.546Z,14.15
2023-03-10T13:11:30.285Z,14.14
2023-03-10T13:13:59.685Z,14.27
2023-03-10T13:16:27.380Z,14.43
2023-03-10T13:19:00.661Z,14.60
2023-03-10T13:21:36.658Z,14.19
2023-03-10T13:24:36.873Z,14.40
2023-03-10T13:27:05.383Z,14.28
2023-03-10T13:29:33.546Z,14.22
2023-03-10T13:32:01.858Z,13.89
2023-03-10T13:34:32.620Z,13.84
2023-03-10T13:37:10.945Z,13.50
2023-03-10T13:39:39.150Z,13.70
2023-03-10T13:42:37.139Z,13.74
2023-03-10T13:45:17.248Z,12.94
2023-03-10T13:47:44.841Z,13.10
2023-03-10T13:50:14.789Z,13.29
2023-03-10T13:52:54.889Z,13.14
2023-03-10T13:55:22.529Z,13.15
2023-03-10T13:57:50.438Z,12.66
2023-03-10T14:00:21.030Z,12.63
2023-03-10T14:02:49.868Z,12.66
2023-03-10T14:05:36.084Z,12.93
2023-03-10T14:08:03.809Z,12.68
2023-03-10T14:10:31.625Z,12.51
2023-03-10T14:13:00.373Z,12.24
2023-03-10T14:15:41.996Z,12.74
2023-03-10T14:18:34.874Z,12.73
2023-03-10T14:21:23.450Z,13.04
2023-03-10T14:23:51.995Z,13.08
2023-03-10T14:26:19.902Z,13.15
2023-03-10T14:28:47.683Z,13.35
2023-03-10T14:31:22.789Z,13.25
2023-03-10T14:33:51.087Z,13.08
2023-03-10T14:36:18.865Z,13.63
2023-03-10T14:38:49.204Z,13.24
2023-03-10T14:41:17.116Z,13.35
2023-03-10T14:43:44.744Z,13.61
2023-03-10T14:46:13.293Z,13.25
2023-03-10T14:48:42.121Z,13.08
2023-03-10T14:51:25.665Z,13.21
2023-03-10T14:54:00.749Z,12.90
2023-03-10T14:56:33.720Z,12.65
2023-03-10T14:59:02.726Z,12.50
2023-03-10T15:01:30.699Z,12.67
2023-03-10T15:03:58.497Z,12.60
2023-03-10T15:06:26.093Z,12.23
2023-03-10T15:08:55.683Z,11.99
2023-03-10T15:11:36.216Z,11.73
2023-03-10T15:14:11.064Z,11.48
2023-03-10T15:16:41.014Z,11.46
2023-03-10T15:19:22.930Z,11.34
2023-03-10T15:21:50.617Z,11.16
2023-03-10T15:24:18.440Z,11.17
2023-03-10T15:26:46.204Z,10.76
2023-03-10T15:29:16.201Z,10.92
2023-03-10T15:31:43.993Z,10.73
2023-03-10T15:34:11.761Z,10.62
2023-03-10T15:36:39.358Z,10.69
2023-03-10T15:39:07.400Z,10.35
2023-03-10T15:41:38.781Z,10.49
2023-03-10T15:44:06.934Z,10.49
2023-03-10T15:46:34.665Z,10.33
2023-03-10T15:49:03.600Z,10.31
2023-03-10T15:51:31.384Z,10.26
2023-03-10T15:53:59.489Z,10.21
2023-03-10T15:56:27.199Z,10.14
2023-03-10T15:58:56.083Z,10.04
2023-03-10T16:01:23.948Z,10.02
2023-03-10T16:03:51.801Z,9.87
2023-03-10T16:06:24.784Z,9.87
2023-03-10T16:08:53.506Z,9.76
2023-03-10T16:11:22.245Z,9.76
2023-03-10T16:13:50.418Z,9.75
2023-03-10T16:16:19.052Z,9.86
2023-03-10T16:18:47.025Z,9.76
2023-03-10T16:21:17.752Z,9.64
2023-03-10T16:23:46.725Z,9.55
2023-03-10T16:26:19.675Z,9.45
2023-03-10T16:28:55.302Z,9.40
2023-03-10T16:31:24.123Z,9.34
2023-03-10T16:33:52.903Z,9.29
2023-03-10T16:36:24.807Z,9.22
2023-03-10T16:38:55.616Z,9.23
2023-03-10T16:41:23.958Z,9.15
2023-03-10T16:43:51.914Z,9.03
2023-03-10T16:46:25.179Z,8.97
2023-03-10T16:48:55.808Z,8.97
2023-03-10T16:51:47.002Z,8.96
2023-03-10T16:54:22.002Z,8.89
2023-03-10T16:56:51.225Z,8.79
2023-03-10T16:59:21.778Z,8.68
2023-03-10T17:01:50.071Z,8.56
2023-03-10T17:04:18.018Z,8.54
2023-03-10T17:06:46.745Z,8.51
2023-03-10T17:09:14.598Z,8.48
2023-03-10T17:11:54.889Z,8.39
2023-03-10T17:14:23.246Z,8.32
2023-03-10T17:16:51.244Z,8.17
2023-03-10T17:19:20.771Z,8.08
2023-03-10T17:21:49.243Z,7.91
2023-03-10T17:24:18.840Z,7.80
2023-03-10T17:26:46.567Z,7.78
2023-03-10T17:29:14.290Z,7.77
2023-03-10T17:31:48.935Z,7.59
2023-03-10T17:34:16.650Z,7.54
2023-03-10T17:36:44.852Z,7.52
2023-03-10T17:39:18.145Z,7.46
2023-03-10T17:41:46.577Z,7.35
2023-03-10T17:44:20.086Z,7.32
2023-03-10T17:46:50.598Z,7.26
2023-03-10T17:49:20.195Z,7.14
2023-03-10T17:51:48.086Z,7.01
2023-03-10T17:54:17.862Z,7.10
2023-03-10T17:56:45.725Z,7.21
2023-03-10T17:59:14.452Z,7.25
2023-03-10T18:01:43.752Z,7.31
2023-03-10T18:04:11.673Z,7.32
2023-03-10T18:06:41.416Z,7.33
2023-03-10T18:09:28.876Z,7.34
2023-03-10T18:11:59.969Z,7.31
2023-03-10T18:14:28.214Z,7.39
2023-03-10T18:16:55.784Z,7.43
2023-03-10T18:19:23.404Z,7.44
2023-03-10T18:21:52.568Z,7.40
2023-03-10T18:24:22.553Z,7.34
2023-03-10T18:26:50.556Z,7.28
2023-03-10T18:29:18.424Z,7.16
2023-03-10T18:31:49.969Z,7.09
2023-03-10T18:34:20.434Z,6.98
2023-03-10T18:36:48.014Z,6.92
2023-03-10T18:39:15.642Z,6.93
2023-03-10T18:41:43.273Z,6.93
2023-03-10T18:44:10.803Z,6.79
2023-03-10T18:46:39.075Z,6.73
2023-03-10T18:49:07.432Z,6.62
2023-03-10T18:51:34.993Z,6.50
2023-03-10T18:54:02.711Z,6.38
2023-03-10T18:56:37.492Z,6.26
2023-03-10T18:59:05.132Z,6.22
2023-03-10T19:01:32.806Z,6.13
2023-03-10T19:04:00.964Z,6.06
2023-03-10T19:06:32.770Z,5.98
2023-03-10T19:09:01.520Z,5.94
2023-03-10T19:11:35.371Z,6.01
2023-03-10T19:14:05.568Z,6.00
2023-03-10T19:16:35.711Z,6.09
2023-03-10T19:19:10.646Z,6.12
2023-03-10T19:21:39.406Z,6.13
2023-03-10T19:24:07.391Z,6.02
2023-03-10T19:26:35.422Z,5.93
2023-03-10T19:29:03.017Z,5.88
2023-03-10T19:31:34.367Z,5.91
2023-03-10T19:34:02.720Z,5.88
2023-03-10T19:36:30.326Z,5.83
2023-03-10T19:38:59.274Z,5.76
2023-03-10T19:41:27.098Z,5.77
2023-03-10T19:43:58.062Z,5.87
2023-03-10T19:46:25.743Z,5.86
2023-03-10T19:48:53.276Z,5.89
2023-03-10T19:51:25.648Z,5.83
2023-03-10T19:53:53.947Z,5.75
2023-03-10T19:56:21.760Z,5.67
2023-03-10T19:58:51.423Z,5.59
2023-03-10T20:01:25.086Z,5.57
2023-03-10T20:03:54.262Z,5.50
2023-03-10T20:06:21.919Z,5.42
2023-03-10T20:08:49.673Z,5.41
2023-03-10T20:11:19.561Z,5.42
2023-03-10T20:13:47.388Z,5.42
2023-03-10T20:16:16.426Z,5.33
2023-03-10T20:18:46.299Z,5.32
2023-03-10T20:21:14.156Z,5.31
2023-03-10T20:23:41.806Z,5.25
2023-03-10T20:26:10.043Z,5.31
2023-03-10T20:28:39.469Z,5.25
2023-03-10T20:31:07.527Z,5.24
2023-03-10T20:33:35.985Z,5.27
2023-03-10T20:36:13.951Z,5.32
2023-03-10T20:38:45.131Z,5.27
2023-03-10T20:41:13.495Z,5.27
2023-03-10T20:43:41.640Z,5.33
2023-03-10T20:46:10.093Z,5.43
2023-03-10T20:48:38.344Z,5.32
2023-03-10T20:51:06.328Z,5.32
2023-03-10T20:53:39.252Z,5.25
2023-03-10T20:56:08.917Z,5.25
2023-03-10T20:59:01.913Z,5.24
2023-03-10T21:01:30.243Z,5.23
2023-03-10T21:03:58.709Z,5.22
2023-03-10T21:06:27.012Z,5.23
2023-03-10T21:09:06.055Z,5.24
2023-03-10T21:11:34.249Z,5.22
2023-03-10T21:14:02.029Z,5.24
2023-03-10T21:16:29.914Z,5.21
2023-03-10T21:18:58.342Z,5.17
2023-03-10T21:21:25.948Z,5.14
2023-03-10T21:23:53.541Z,5.16
2023-03-10T21:26:21.482Z,5.16
2023-03-10T21:28:49.413Z,5.16
2023-03-10T21:31:17.234Z,5.17
2023-03-10T21:33:45.138Z,5.20
2023-03-10T21:36:22.983Z,5.25
2023-03-10T21:38:52.801Z,5.27
2023-03-10T21:41:25.382Z,5.33
2023-03-10T21:43:54.158Z,5.36
2023-03-10T21:46:22.018Z,5.35
2023-03-10T21:48:49.987Z,5.34
2023-03-10T21:51:19.350Z,5.32
2023-03-10T21:53:47.394Z,5.34
2023-03-10T21:56:17.896Z,5.30
2023-03-10T21:58:46.037Z,5.28
2023-03-10T22:01:19.094Z,5.10
2023-03-10T22:03:46.924Z,5.10
2023-03-10T22:06:14.885Z,5.07
2023-03-10T22:08:42.624Z,5.05
2023-03-10T22:11:12.234Z,5.00
2023-03-10T22:13:40.965Z,4.80
2023-03-10T22:16:10.818Z,4.80
2023-03-10T22:18:41.588Z,4.79
2023-03-10T22:21:09.126Z,4.77
2023-03-10T22:23:36.658Z,4.74
2023-03-10T22:26:04.460Z,4.66
2023-03-10T22:28:32.431Z,4.67
2023-03-10T22:31:00.391Z,4.60
2023-03-10T22:33:28.690Z,4.55
2023-03-10T22:35:56.335Z,4.52
2023-03-10T22:38:24.038Z,4.52
2023-03-10T22:40:51.689Z,4.51
2023-03-10T22:43:19.561Z,4.54
2023-03-10T22:45:47.205Z,4.57
2023-03-10T22:48:14.913Z,4.53
2023-03-10T22:50:46.913Z,4.59
2023-03-10T22:53:16.243Z,4.60
2023-03-10T22:55:46.532Z,4.69
2023-03-10T22:58:16.402Z,4.75
2023-03-10T23:00:44.717Z,4.83
2023-03-10T23:03:14.059Z,4.86
2023-03-10T23:05:42.080Z,4.86
2023-03-10T23:08:13.059Z,4.89
2023-03-10T23:10:41.153Z,4.91
2023-03-10T23:13:12.440Z,4.94
2023-03-10T23:15:40.004Z,4.96
2023-03-10T23:18:08.021Z,4.89
2023-03-10T23:20:43.837Z,4.90
2023-03-10T23:23:12.446Z,4.88
2023-03-10T23:25:41.611Z,4.87
2023-03-10T23:28:10.877Z,4.82
2023-03-10T23:30:39.905Z,4.80
2023-03-10T23:33:07.914Z,4.75
2023-03-10T23:35:36.490Z,4.71
2023-03-10T23:38:05.669Z,4.68
2023-03-10T23:40:35.030Z,4.68
2023-03-10T23:43:04.382Z,4.66
2023-03-10T23:45:33.442Z,4.65
2023-03-10T23:48:01.697Z,4.66
2023-03-10T23:50:31.246Z,4.68
2023-03-10T23:52:59.116Z,4.70
2023-03-10T23:55:28.953Z,4.73
2023-03-10T23:57:56.711Z,4.77
